Time;durP1;ratioP1;P1;durP2;ratioP2;P2;SDS_P1;SDS_P2;PMS_P1;PMS_P2;Temp;Humidity;BMP_temperature;BMP_pressure;BME280_temperature;BME280_humidity;BME280_pressure;Samples;Min_cycle;Max_cycle;Signal;HPM_P1;HPM_P2
2022/06/08 00:01:58;;;;;;;0.57;0.50;;;;;;;;;;5012542;28;20361;-54
2022/06/08 00:04:25;;;;;;;0.57;0.40;;;;;;;;;;5010986;28;20048;-53
2022/06/08 00:06:51;;;;;;;0.80;0.57;;;;;;;;;;5010328;28;20034;-50
2022/06/08 00:09:17;;;;;;;0.85;0.40;;;;;;;;;;5011077;28;20041;-52
2022/06/08 00:11:44;;;;;;;1.70;0.50;;;;;;;;;;5011640;28;20349;-51
2022/06/08 00:14:10;;;;;;;0.35;0.35;;;;;;;;;;5010802;28;20042;-51
2022/06/08 00:16:36;;;;;;;1.45;0.40;;;;;;;;;;5011752;28;20022;-50
2022/06/08 00:19:02;;;;;;;1.15;0.90;;;;;;;;;;5011278;28;20034;-54
2022/06/08 00:21:28;;;;;;;0.52;0.50;;;;;;;;;;5009877;28;20125;-49
2022/06/08 00:23:55;;;;;;;1.25;0.65;;;;;;;;;;5011515;28;20490;-51
2022/06/08 00:26:22;;;;;;;0.55;0.55;;;;;;;;;;5011079;28;20649;-48
2022/06/08 00:28:48;;;;;;;0.82;0.60;;;;;;;;;;5011527;28;20034;-48
2022/06/08 00:31:14;;;;;;;1.00;0.50;;;;;;;;;;5010677;28;20092;-52
2022/06/08 00:33:40;;;;;;;0.80;0.50;;;;;;;;;;5011712;28;20034;-48
2022/06/08 00:36:07;;;;;;;0.82;0.52;;;;;;;;;;5010638;28;20356;-49
2022/06/08 00:38:33;;;;;;;0.47;0.43;;;;;;;;;;5009737;28;20026;-52
2022/06/08 00:41:02;;;;;;;0.70;0.40;;;;;;;;;;5011775;28;20037;-51
2022/06/08 00:43:28;;;;;;;1.80;0.60;;;;;;;;;;5011016;28;20029;-52
2022/06/08 00:45:54;;;;;;;2.13;0.50;;;;;;;;;;5009784;28;20046;-50
2022/06/08 00:48:21;;;;;;;3.25;0.70;;;;;;;;;;5010263;28;20582;-48
2022/06/08 00:50:50;;;;;;;1.30;0.57;;;;;;;;;;5011507;28;20058;-48
2022/06/08 00:53:17;;;;;;;2.15;0.77;;;;;;;;;;5009204;28;20457;-52
2022/06/08 00:55:44;;;;;;;0.50;0.40;;;;;;;;;;5010338;28;20371;-49
2022/06/08 00:58:23;;;;;;;0.98;0.47;;;;;;;;;;5014231;28;20034;-53
2022/06/08 01:00:50;;;;;;;0.70;0.55;;;;;;;;;;5008211;28;20056;-52
2022/06/08 01:03:16;;;;;;;1.20;0.80;;;;;;;;;;5014347;28;20026;-50
2022/06/08 01:05:47;;;;;;;0.65;0.50;;;;;;;;;;5014595;28;20065;-53
2022/06/08 01:08:19;;;;;;;0.77;0.40;;;;;;;;;;5014115;28;20060;-49
2022/06/08 01:10:47;;;;;;;0.57;0.40;;;;;;;;;;5014263;28;20480;-52
2022/06/08 01:13:13;;;;;;;0.65;0.50;;;;;;;;;;5012078;28;20040;-51
2022/06/08 01:15:40;;;;;;;0.60;0.50;;;;;;;;;;5014479;28;20111;-51
2022/06/08 01:18:06;;;;;;;0.40;0.40;;;;;;;;;;5013360;28;20041;-54
2022/06/08 01:20:33;;;;;;;0.88;0.65;;;;;;;;;;5014898;28;20141;-52
2022/06/08 01:22:59;;;;;;;1.75;0.65;;;;;;;;;;5014432;28;20032;-51
2022/06/08 01:25:25;;;;;;;1.40;0.60;;;;;;;;;;5013799;28;20017;-48
2022/06/08 01:28:10;;;;;;;0.55;0.50;;;;;;;;;;5014166;28;20438;-49
2022/06/08 01:30:57;;;;;;;0.50;0.50;;;;;;;;;;5012583;28;20403;-48
2022/06/08 01:33:41;;;;;;;0.90;0.68;;;;;;;;;;5013351;28;20030;-48
2022/06/08 01:36:10;;;;;;;1.08;0.60;;;;;;;;;;5013117;28;20112;-52
2022/06/08 01:38:48;;;;;;;0.70;0.57;;;;;;;;;;5014351;28;20376;-49
2022/06/08 01:41:52;;;;;;;0.55;0.50;;;;;;;;;;5012896;28;20472;-50
2022/06/08 01:44:37;;;;;;;1.55;0.70;;;;;;;;;;4952609;29;20102;-48
2022/06/08 01:47:03;;;;;;;0.85;0.65;;;;;;;;;;4951569;29;20059;-50
2022/06/08 01:49:32;;;;;;;0.73;0.73;;;;;;;;;;4952801;29;20067;-50
2022/06/08 01:52:37;;;;;;;0.73;0.70;;;;;;;;;;4953376;29;20047;-49
2022/06/08 01:55:03;;;;;;;0.68;0.45;;;;;;;;;;4895956;29;20053;-51
2022/06/08 01:57:35;;;;;;;1.23;0.60;;;;;;;;;;4894525;29;21933;-52
2022/06/08 02:00:05;;;;;;;2.80;0.60;;;;;;;;;;4895819;29;20044;-49
2022/06/08 02:02:46;;;;;;;1.02;0.50;;;;;;;;;;4893726;29;20046;-50
2022/06/08 02:05:16;;;;;;;1.30;0.80;;;;;;;;;;4890333;29;20103;-49
2022/06/08 02:07:49;;;;;;;1.05;0.60;;;;;;;;;;4895677;29;20040;-50
2022/06/08 02:10:21;;;;;;;1.02;0.80;;;;;;;;;;4895260;29;20602;-49
2022/06/08 02:12:51;;;;;;;1.52;0.60;;;;;;;;;;4895836;29;20045;-51
2022/06/08 02:15:20;;;;;;;0.45;0.40;;;;;;;;;;4917868;29;20040;-50
2022/06/08 02:17:49;;;;;;;0.52;0.52;;;;;;;;;;4931869;29;20118;-51
2022/06/08 02:20:21;;;;;;;1.48;0.73;;;;;;;;;;4932853;29;20044;-49
2022/06/08 02:22:47;;;;;;;;;;;;;;;;;;4933790;29;20237;-49
2022/06/08 02:25:16;;;;;;;0.90;0.50;;;;;;;;;;4954400;28;19909;-50
2022/06/08 02:27:45;;;;;;;0.70;0.60;;;;;;;;;;5013421;28;20033;-50
2022/06/08 02:30:13;;;;;;;0.80;0.60;;;;;;;;;;5012715;28;20026;-52
2022/06/08 02:35:29;;;;;;;0.77;0.50;;;;;;;;;;5012706;28;20032;-52
2022/06/08 02:37:58;;;;;;;0.70;0.60;;;;;;;;;;5012297;28;20021;-49
2022/06/08 02:40:27;;;;;;;1.08;0.75;;;;;;;;;;5012151;28;20037;-50
2022/06/08 02:42:55;;;;;;;2.33;0.70;;;;;;;;;;5013048;28;20030;-49
2022/06/08 02:45:25;;;;;;;1.10;1.00;;;;;;;;;;5012020;28;20033;-49
2022/06/08 02:47:52;;;;;;;1.05;0.60;;;;;;;;;;5012746;28;20037;-49
2022/06/08 02:50:20;;;;;;;1.08;0.55;;;;;;;;;;5010225;28;20034;-50
2022/06/08 02:52:46;;;;;;;0.77;0.45;;;;;;;;;;5012707;28;20091;-49
2022/06/08 02:55:15;;;;;;;1.10;0.50;;;;;;;;;;5007688;28;20026;-50
2022/06/08 02:57:41;;;;;;;1.08;0.60;;;;;;;;;;5012788;28;20038;-50
2022/06/08 03:00:11;;;;;;;0.75;0.60;;;;;;;;;;5012700;28;20026;-50
2022/06/08 03:02:42;;;;;;;1.35;0.88;;;;;;;;;;5012308;28;20490;-48
2022/06/08 03:05:27;;;;;;;0.70;0.50;;;;;;;;;;5012817;28;20160;-52
2022/06/08 03:07:58;;;;;;;1.33;0.98;;;;;;;;;;5010571;28;20038;-51
2022/06/08 03:10:27;;;;;;;2.15;0.85;;;;;;;;;;5011766;28;20100;-50
2022/06/08 03:12:57;;;;;;;1.00;0.50;;;;;;;;;;5012505;28;20064;-50
2022/06/08 03:15:25;;;;;;;4.23;0.80;;;;;;;;;;5011692;28;20083;-52
2022/06/08 03:17:51;;;;;;;1.02;0.70;;;;;;;;;;5011315;28;20116;-49
2022/06/08 03:20:18;;;;;;;1.60;0.60;;;;;;;;;;5011744;28;20030;-54
2022/06/08 03:22:45;;;;;;;1.90;0.55;;;;;;;;;;5012452;28;20030;-51
2022/06/08 03:25:11;;;;;;;0.93;0.50;;;;;;;;;;5010366;28;20034;-53
2022/06/08 03:27:37;;;;;;;0.75;0.50;;;;;;;;;;5011844;28;20033;-52
2022/06/08 03:30:04;;;;;;;0.57;0.50;;;;;;;;;;5012312;28;20112;-50
2022/06/08 03:32:30;;;;;;;0.77;0.60;;;;;;;;;;5011527;28;20029;-52
2022/06/08 03:34:56;;;;;;;0.55;0.50;;;;;;;;;;5012360;28;20029;-49
2022/06/08 03:37:23;;;;;;;0.75;0.68;;;;;;;;;;5011062;28;20021;-47
2022/06/08 03:39:49;;;;;;;0.70;0.50;;;;;;;;;;5011957;28;20048;-50
2022/06/08 03:42:15;;;;;;;2.80;0.70;;;;;;;;;;5009281;28;20021;-53
2022/06/08 03:44:41;;;;;;;0.95;0.68;;;;;;;;;;5012359;28;20113;-49
2022/06/08 03:47:12;;;;;;;1.30;0.75;;;;;;;;;;5011645;28;20077;-48
2022/06/08 03:49:40;;;;;;;0.43;0.43;;;;;;;;;;5011454;28;20112;-53
2022/06/08 03:52:09;;;;;;;1.70;1.10;;;;;;;;;;5012091;28;20026;-53
2022/06/08 03:54:38;;;;;;;1.00;0.90;;;;;;;;;;5010737;28;20022;-52
2022/06/08 03:57:08;;;;;;;0.98;0.68;;;;;;;;;;5011701;28;20056;-53
2022/06/08 03:59:34;;;;;;;1.45;0.75;;;;;;;;;;5006288;28;20022;-51
2022/06/08 04:02:00;;;;;;;0.47;0.47;;;;;;;;;;5011582;28;20041;-49
2022/06/08 04:04:27;;;;;;;1.60;0.52;;;;;;;;;;5005027;28;20489;-49
2022/06/08 04:06:53;;;;;;;2.05;1.10;;;;;;;;;;5011916;28;20380;-50
2022/06/08 04:09:20;;;;;;;2.60;0.77;;;;;;;;;;5010501;28;20533;-46
2022/06/08 04:11:46;;;;;;;2.40;0.70;;;;;;;;;;5011739;28;20407;-50
2022/06/08 04:14:12;;;;;;;0.93;0.77;;;;;;;;;;5011596;28;20022;-51
2022/06/08 04:16:38;;;;;;;0.68;0.57;;;;;;;;;;5006827;28;20057;-46
2022/06/08 04:19:04;;;;;;;0.88;0.70;;;;;;;;;;5011762;28;20383;-52
2022/06/08 04:21:31;;;;;;;0.98;0.63;;;;;;;;;;5010923;28;20022;-50
2022/06/08 04:23:57;;;;;;;0.70;0.68;;;;;;;;;;5011383;28;20033;-50
2022/06/08 04:26:23;;;;;;;1.20;0.80;;;;;;;;;;5010748;28;20030;-52
2022/06/08 04:28:49;;;;;;;2.00;0.60;;;;;;;;;;5012755;28;20022;-51
2022/06/08 04:31:16;;;;;;;2.03;0.85;;;;;;;;;;5013357;28;20080;-53
2022/06/08 04:33:42;;;;;;;1.55;0.60;;;;;;;;;;5015230;28;20022;-54
2022/06/08 04:36:08;;;;;;;1.00;0.70;;;;;;;;;;5015449;28;20124;-52
2022/06/08 04:38:35;;;;;;;1.13;0.55;;;;;;;;;;5014584;28;20694;-51
2022/06/08 04:41:01;;;;;;;1.35;0.70;;;;;;;;;;5015238;28;20060;-49
2022/06/08 04:43:27;;;;;;;1.50;0.68;;;;;;;;;;5014383;28;20026;-47
2022/06/08 04:45:53;;;;;;;0.50;0.45;;;;;;;;;;5015054;28;20053;-50
2022/06/08 04:48:21;;;;;;;1.00;0.60;;;;;;;;;;5012763;28;20352;-56
2022/06/08 04:50:48;;;;;;;1.38;0.80;;;;;;;;;;5014414;28;20476;-54
2022/06/08 04:53:14;;;;;;;3.10;0.60;;;;;;;;;;5015020;28;20034;-51
2022/06/08 04:55:40;;;;;;;0.70;0.60;;;;;;;;;;5014181;28;20240;-50
2022/06/08 04:58:06;;;;;;;0.93;0.50;;;;;;;;;;5014838;28;20049;-52
2022/06/08 05:00:33;;;;;;;2.55;0.63;;;;;;;;;;5013985;28;20022;-49
2022/06/08 05:02:59;;;;;;;0.90;0.60;;;;;;;;;;5014526;28;20034;-49
2022/06/08 05:05:25;;;;;;;1.33;0.55;;;;;;;;;;5011115;28;20018;-47
2022/06/08 05:07:51;;;;;;;2.50;1.25;;;;;;;;;;5014892;28;20132;-52
2022/06/08 05:10:18;;;;;;;1.02;0.60;;;;;;;;;;5014465;28;20026;-48
2022/06/08 05:12:45;;;;;;;0.85;0.60;;;;;;;;;;5014068;28;20116;-53
2022/06/08 05:15:13;;;;;;;1.67;0.70;;;;;;;;;;5014373;28;20161;-49
2022/06/08 05:17:40;;;;;;;1.58;0.65;;;;;;;;;;5013592;28;20203;-48
2022/06/08 05:20:07;;;;;;;1.27;1.00;;;;;;;;;;5014292;28;20049;-54
2022/06/08 05:22:33;;;;;;;1.80;0.90;;;;;;;;;;5004532;28;20111;-48
2022/06/08 05:25:00;;;;;;;0.98;0.60;;;;;;;;;;5014230;28;20471;-49
2022/06/08 05:27:27;;;;;;;2.45;0.68;;;;;;;;;;5013408;28;20451;-51
2022/06/08 05:29:53;;;;;;;1.73;0.63;;;;;;;;;;5014204;28;20022;-47
2022/06/08 05:32:20;;;;;;;5.00;1.10;;;;;;;;;;5013509;28;20080;-54
2022/06/08 05:34:46;;;;;;;0.98;0.50;;;;;;;;;;5014207;28;20034;-52
2022/06/08 05:37:12;;;;;;;1.55;0.75;;;;;;;;;;5013061;28;20030;-52
2022/06/08 05:39:38;;;;;;;1.50;0.60;;;;;;;;;;5010361;28;20509;-47
2022/06/08 05:42:04;;;;;;;3.35;1.00;;;;;;;;;;5013246;28;20026;-46
2022/06/08 05:44:32;;;;;;;6.20;0.80;;;;;;;;;;5012052;28;20034;-50
2022/06/08 05:46:58;;;;;;;6.15;1.27;;;;;;;;;;5018002;28;20137;-51
2022/06/08 05:49:25;;;;;;;4.43;1.00;;;;;;;;;;5011486;28;20051;-59
2022/06/08 05:51:51;;;;;;;2.63;0.90;;;;;;;;;;5017499;28;20053;-51
2022/06/08 05:54:17;;;;;;;2.25;1.00;;;;;;;;;;5001992;28;20037;-51
2022/06/08 05:56:43;;;;;;;5.68;1.23;;;;;;;;;;5011082;28;20026;-51
2022/06/08 05:59:09;;;;;;;4.72;0.73;;;;;;;;;;5013050;28;20476;-57
2022/06/08 06:01:36;;;;;;;3.63;1.10;;;;;;;;;;5011960;28;20036;-52
2022/06/08 06:04:07;;;;;;;2.03;0.75;;;;;;;;;;5008318;28;20030;-50
2022/06/08 06:06:33;;;;;;;8.87;2.13;;;;;;;;;;5012463;28;20033;-53
2022/06/08 06:09:00;;;;;;;5.45;0.90;;;;;;;;;;5013277;28;20426;-54
2022/06/08 06:11:26;;;;;;;4.57;1.52;;;;;;;;;;5012625;28;20213;-55
2022/06/08 06:13:52;;;;;;;5.68;1.55;;;;;;;;;;5009867;28;20045;-50
2022/06/08 06:16:18;;;;;;;6.90;1.65;;;;;;;;;;5006367;28;20030;-52
2022/06/08 06:18:44;;;;;;;4.35;1.30;;;;;;;;;;5012370;28;20037;-52
2022/06/08 06:21:20;;;;;;;2.22;0.75;;;;;;;;;;5013239;28;20109;-56
2022/06/08 06:23:46;;;;;;;3.47;0.80;;;;;;;;;;5009698;28;20101;-54
2022/06/08 06:26:12;;;;;;;3.95;0.85;;;;;;;;;;5012694;28;20026;-54
2022/06/08 06:28:39;;;;;;;2.67;1.00;;;;;;;;;;5012240;28;20030;-53
2022/06/08 06:31:05;;;;;;;3.35;0.88;;;;;;;;;;5012668;28;20101;-54
2022/06/08 06:33:32;;;;;;;7.35;1.55;;;;;;;;;;5011622;28;20112;-49
2022/06/08 06:35:58;;;;;;;2.45;0.70;;;;;;;;;;5012358;28;20463;-58
2022/06/08 06:38:24;;;;;;;3.00;1.02;;;;;;;;;;5011359;28;20030;-55
2022/06/08 06:40:50;;;;;;;3.97;0.93;;;;;;;;;;5010196;28;20026;-54
2022/06/08 06:43:17;;;;;;;2.33;0.90;;;;;;;;;;5011655;28;20475;-50
2022/06/08 06:45:43;;;;;;;5.13;0.93;;;;;;;;;;5008561;28;20062;-56
2022/06/08 06:48:09;;;;;;;2.00;1.17;;;;;;;;;;5007588;28;20142;-55
2022/06/08 06:50:35;;;;;;;2.75;1.10;;;;;;;;;;5010989;28;20464;-55
2022/06/08 06:53:01;;;;;;;4.68;0.80;;;;;;;;;;5010064;28;20034;-49
2022/06/08 06:55:29;;;;;;;8.25;1.75;;;;;;;;;;5010795;28;20128;-53
2022/06/08 06:57:56;;;;;;;5.32;1.45;;;;;;;;;;5010633;28;20034;-54
2022/06/08 07:00:23;;;;;;;6.75;1.15;;;;;;;;;;5008358;28;20022;-58
2022/06/08 07:02:49;;;;;;;5.60;1.00;;;;;;;;;;5006415;28;20378;-51
2022/06/08 07:05:17;;;;;;;4.05;1.08;;;;;;;;;;5011846;28;20467;-48
2022/06/08 07:07:44;;;;;;;3.83;1.25;;;;;;;;;;5011833;28;20160;-53
2022/06/08 07:10:10;;;;;;;4.32;0.90;;;;;;;;;;5012051;28;20026;-49
2022/06/08 07:12:36;;;;;;;5.13;1.08;;;;;;;;;;5011016;28;20091;-50
2022/06/08 07:15:02;;;;;;;4.35;0.90;;;;;;;;;;5012295;28;20029;-53
2022/06/08 07:17:28;;;;;;;3.15;1.15;;;;;;;;;;5010581;28;20034;-49
2022/06/08 07:19:54;;;;;;;3.85;0.90;;;;;;;;;;5008801;28;20022;-53
2022/06/08 07:22:20;;;;;;;2.88;1.00;;;;;;;;;;5011088;28;20026;-51
2022/06/08 07:24:47;;;;;;;3.10;1.13;;;;;;;;;;5010524;28;20722;-50
2022/06/08 07:27:13;;;;;;;3.75;1.00;;;;;;;;;;5011152;28;20155;-51
2022/06/08 07:29:39;;;;;;;3.53;1.20;;;;;;;;;;5009610;28;20037;-51
2022/06/08 07:32:06;;;;;;;5.70;1.13;;;;;;;;;;5010988;28;20022;-56
2022/06/08 07:34:32;;;;;;;4.82;1.02;;;;;;;;;;5009104;28;20076;-53
2022/06/08 07:37:00;;;;;;;4.57;1.23;;;;;;;;;;5011404;28;20022;-53
2022/06/08 07:39:26;;;;;;;2.85;1.33;;;;;;;;;;4993347;28;20033;-54
2022/06/08 07:41:53;;;;;;;2.55;1.10;;;;;;;;;;5010930;28;20021;-53
2022/06/08 07:44:20;;;;;;;3.45;0.90;;;;;;;;;;5008832;28;20026;-54
2022/06/08 07:46:46;;;;;;;5.47;1.13;;;;;;;;;;4999408;28;20045;-52
2022/06/08 07:51:58;;;;;;;3.05;1.30;;;;;;;;;;5002373;28;20037;-51
2022/06/08 07:54:25;;;;;;;2.45;0.90;;;;;;;;;;5003790;28;20039;-52
2022/06/08 07:56:53;;;;;;;4.15;0.98;;;;;;;;;;4993282;28;20032;-52
2022/06/08 07:59:20;;;;;;;4.53;1.15;;;;;;;;;;5011418;28;20100;-55
2022/06/08 08:01:46;;;;;;;5.60;1.17;;;;;;;;;;5009653;28;20026;-54
2022/06/08 08:04:12;;;;;;;7.47;1.42;;;;;;;;;;5013117;28;20018;-54
2022/06/08 08:06:38;;;;;;;0.82;0.68;;;;;;;;;;5014540;28;20459;-52
2022/06/08 08:09:03;;;;;;;3.65;0.98;;;;;;;;;;5015037;28;20033;-49
2022/06/08 08:11:29;;;;;;;3.35;0.95;;;;;;;;;;5014588;28;20463;-51
2022/06/08 08:13:55;;;;;;;2.72;0.85;;;;;;;;;;5015639;28;20029;-51
2022/06/08 08:16:22;;;;;;;4.90;1.20;;;;;;;;;;5015421;28;20104;-53
2022/06/08 08:18:48;;;;;;;2.63;1.00;;;;;;;;;;5014396;28;20018;-53
2022/06/08 08:21:14;;;;;;;2.53;1.48;;;;;;;;;;5010339;28;20042;-51
2022/06/08 08:23:40;;;;;;;4.50;1.08;;;;;;;;;;5006676;28;20031;-54
2022/06/08 08:26:06;;;;;;;3.38;1.25;;;;;;;;;;5014968;28;20104;-53
2022/06/08 08:28:32;;;;;;;5.43;1.25;;;;;;;;;;5014107;28;20038;-54
2022/06/08 08:30:58;;;;;;;5.38;1.30;;;;;;;;;;5013983;28;20033;-54
2022/06/08 08:33:24;;;;;;;4.95;1.42;;;;;;;;;;5014849;28;20030;-54
2022/06/08 08:35:52;;;;;;;6.93;1.48;;;;;;;;;;5014253;28;20053;-52
2022/06/08 08:38:19;;;;;;;5.03;1.95;;;;;;;;;;5014798;28;20112;-53
2022/06/08 08:41:04;;;;;;;5.93;1.67;;;;;;;;;;5014015;28;20029;-52
2022/06/08 08:43:32;;;;;;;7.82;1.80;;;;;;;;;;5010860;28;20127;-54
2022/06/08 08:45:58;;;;;;;3.05;1.55;;;;;;;;;;5014344;28;20556;-50
2022/06/08 08:48:29;;;;;;;3.72;1.13;;;;;;;;;;5014410;28;20140;-49
2022/06/08 08:51:14;;;;;;;5.35;1.73;;;;;;;;;;5014580;28;20531;-51
2022/06/08 08:53:46;;;;;;;4.82;1.42;;;;;;;;;;5013889;28;20129;-52
2022/06/08 08:56:19;;;;;;;5.13;1.65;;;;;;;;;;5012142;28;20023;-52
2022/06/08 08:58:46;;;;;;;5.70;1.88;;;;;;;;;;5013440;28;20048;-52
2022/06/08 09:01:25;;;;;;;5.35;1.77;;;;;;;;;;5012463;28;20439;-52
2022/06/08 09:04:03;;;;;;;7.18;1.60;;;;;;;;;;5013628;28;20888;-52
2022/06/08 09:06:31;;;;;;;5.57;1.90;;;;;;;;;;5013509;28;20109;-52
2022/06/08 09:09:00;;;;;;;2.63;1.30;;;;;;;;;;5013749;28;20022;-50
2022/06/08 09:11:38;;;;;;;2.58;1.05;;;;;;;;;;5014222;28;20018;-52
2022/06/08 09:14:09;;;;;;;4.90;1.30;;;;;;;;;;5014067;28;20030;-52
2022/06/08 09:16:38;;;;;;;3.35;1.30;;;;;;;;;;5012201;28;20112;-54
2022/06/08 09:19:22;;;;;;;3.83;1.30;;;;;;;;;;5014134;28;20084;-53
2022/06/08 09:21:59;;;;;;;3.30;1.20;;;;;;;;;;5013107;28;20026;-49
2022/06/08 09:24:34;;;;;;;5.80;1.40;;;;;;;;;;5013435;28;20037;-51
2022/06/08 09:27:22;;;;;;;2.72;1.52;;;;;;;;;;5013680;28;20034;-51
2022/06/08 09:30:02;;;;;;;4.20;1.33;;;;;;;;;;5006261;28;20105;-51
2022/06/08 09:32:41;;;;;;;4.57;1.30;;;;;;;;;;5008510;28;20029;-50
2022/06/08 09:35:29;;;;;;;3.72;1.38;;;;;;;;;;4992839;28;20360;-49
2022/06/08 09:37:56;;;;;;;3.55;1.23;;;;;;;;;;5006123;28;20114;-52
2022/06/08 09:40:36;;;;;;;3.20;1.20;;;;;;;;;;5012428;28;20439;-51
2022/06/08 09:43:11;;;;;;;5.05;1.63;;;;;;;;;;5011767;28;20434;-51
2022/06/08 09:45:43;;;;;;;2.92;0.93;;;;;;;;;;5005461;28;20050;-54
2022/06/08 09:53:49;;;;;;;3.22;1.15;;;;;;;;;;5005153;28;20398;-51
2022/06/08 09:56:35;;;;;;;3.13;1.75;;;;;;;;;;5013764;28;20029;-54
2022/06/08 09:59:10;;;;;;;4.40;1.35;;;;;;;;;;5010791;28;20034;-54
2022/06/08 10:01:55;;;;;;;3.03;1.23;;;;;;;;;;5011941;28;20026;-50
2022/06/08 10:04:26;;;;;;;2.15;0.93;;;;;;;;;;5005174;28;20030;-53
2022/06/08 10:06:56;;;;;;;4.60;1.05;;;;;;;;;;5011229;28;20079;-54
2022/06/08 10:09:28;;;;;;;2.22;0.90;;;;;;;;;;5010298;28;20033;-52
2022/06/08 10:11:54;;;;;;;;;;;;;;;;;;5010871;28;20057;-54
2022/06/08 10:14:23;;;;;;;2.72;1.00;;;;;;;;;;5007622;28;19926;-53
2022/06/08 10:16:53;;;;;;;3.42;1.00;;;;;;;;;;5011668;28;20030;-49
2022/06/08 10:19:26;;;;;;;2.47;0.90;;;;;;;;;;5005192;28;20033;-54
2022/06/08 10:21:52;;;;;;;3.78;1.20;;;;;;;;;;5010249;28;20363;-53
2022/06/08 10:24:25;;;;;;;2.38;1.00;;;;;;;;;;5010537;28;20037;-51
2022/06/08 10:27:10;;;;;;;2.25;0.90;;;;;;;;;;5007006;28;20231;-52
2022/06/08 10:29:46;;;;;;;2.75;0.75;;;;;;;;;;5006416;28;20030;-50
2022/06/08 10:32:17;;;;;;;4.22;1.00;;;;;;;;;;5011963;28;20034;-53
2022/06/08 10:34:43;;;;;;;3.15;1.58;;;;;;;;;;5011402;28;20045;-50
2022/06/08 10:37:18;;;;;;;2.17;0.82;;;;;;;;;;5010317;28;20036;-53
2022/06/08 10:39:45;;;;;;;3.72;0.85;;;;;;;;;;5010955;28;20034;-54
2022/06/08 10:44:58;;;;;;;5.35;1.23;;;;;;;;;;5008988;28;20053;-51
2022/06/08 10:47:31;;;;;;;3.00;0.80;;;;;;;;;;5011654;28;20054;-53
2022/06/08 10:50:14;;;;;;;3.58;0.80;;;;;;;;;;5011104;28;20108;-50
2022/06/08 10:52:42;;;;;;;2.28;0.93;;;;;;;;;;5010122;28;20387;-52
2022/06/08 10:55:14;;;;;;;2.67;0.75;;;;;;;;;;5011690;28;20045;-50
2022/06/08 10:57:48;;;;;;;3.63;1.02;;;;;;;;;;5011076;28;20042;-53
2022/06/08 11:00:20;;;;;;;3.53;0.75;;;;;;;;;;5012222;28;20030;-53
2022/06/08 11:02:59;;;;;;;4.95;1.10;;;;;;;;;;5007632;28;20088;-52
2022/06/08 11:05:34;;;;;;;4.53;0.80;;;;;;;;;;5011906;28;20033;-53
2022/06/08 11:08:13;;;;;;;2.47;0.70;;;;;;;;;;5011725;28;20038;-53
2022/06/08 11:10:49;;;;;;;1.25;0.60;;;;;;;;;;5004673;28;20034;-50
2022/06/08 11:13:24;;;;;;;1.50;0.70;;;;;;;;;;5012212;28;20022;-50
2022/06/08 11:15:54;;;;;;;1.30;0.70;;;;;;;;;;5010581;28;20037;-52
2022/06/08 11:18:31;;;;;;;2.40;0.75;;;;;;;;;;5008794;28;20030;-51
2022/06/08 11:21:17;;;;;;;2.20;1.20;;;;;;;;;;5009991;28;20021;-52
2022/06/08 11:23:46;;;;;;;1.80;0.70;;;;;;;;;;5010806;28;20026;-52
2022/06/08 11:26:35;;;;;;;2.20;0.73;;;;;;;;;;5005898;28;20026;-51
2022/06/08 11:29:21;;;;;;;4.35;0.73;;;;;;;;;;4994750;28;20050;-53
2022/06/08 11:31:50;;;;;;;1.40;0.70;;;;;;;;;;5004951;28;20030;-54
2022/06/08 11:34:16;;;;;;;2.13;1.00;;;;;;;;;;5010796;28;20100;-53
2022/06/08 11:36:52;;;;;;;2.92;1.05;;;;;;;;;;5010252;28;20026;-54
2022/06/08 11:39:26;;;;;;;2.40;0.80;;;;;;;;;;5011141;28;20030;-50
2022/06/08 11:42:24;;;;;;;2.05;0.80;;;;;;;;;;5010551;28;20698;-53
2022/06/08 11:44:58;;;;;;;1.52;0.80;;;;;;;;;;4998504;28;20042;-52
2022/06/08 11:47:34;;;;;;;2.65;0.90;;;;;;;;;;5010257;28;20045;-53
2022/06/08 11:50:02;;;;;;;0.93;0.60;;;;;;;;;;5011149;28;20057;-52
2022/06/08 11:52:33;;;;;;;1.77;0.75;;;;;;;;;;5004235;28;20014;-53
2022/06/08 11:55:01;;;;;;;1.40;0.60;;;;;;;;;;5009525;28;20071;-54
2022/06/08 11:57:27;;;;;;;1.65;0.70;;;;;;;;;;5008531;28;20072;-54
2022/06/08 11:59:55;;;;;;;1.40;0.70;;;;;;;;;;5009576;28;20021;-52
2022/06/08 12:02:34;;;;;;;1.98;0.70;;;;;;;;;;5008318;28;20038;-53
2022/06/08 12:05:00;;;;;;;2.83;0.93;;;;;;;;;;5010918;28;20033;-50
2022/06/08 12:07:26;;;;;;;1.83;0.70;;;;;;;;;;5010902;28;20028;-52
2022/06/08 12:09:52;;;;;;;1.55;0.73;;;;;;;;;;5009508;28;20801;-51
2022/06/08 12:12:21;;;;;;;1.33;0.60;;;;;;;;;;5010621;28;20026;-54
2022/06/08 12:14:48;;;;;;;2.22;0.70;;;;;;;;;;5010245;28;20057;-53
2022/06/08 12:17:14;;;;;;;1.13;0.70;;;;;;;;;;5009035;28;20033;-50
2022/06/08 12:19:40;;;;;;;1.90;0.88;;;;;;;;;;5010192;28;20038;-53
2022/06/08 12:22:14;;;;;;;0.93;0.60;;;;;;;;;;5004537;28;20092;-50
2022/06/08 12:24:40;;;;;;;1.80;0.70;;;;;;;;;;5004006;28;20022;-50
2022/06/08 12:27:15;;;;;;;0.70;0.70;;;;;;;;;;5012044;28;20109;-51
2022/06/08 12:29:52;;;;;;;1.67;0.70;;;;;;;;;;5007453;28;20038;-53
2022/06/08 12:32:26;;;;;;;2.38;1.10;;;;;;;;;;5009535;28;20113;-49
2022/06/08 12:35:01;;;;;;;1.80;0.70;;;;;;;;;;4991321;28;20467;-51
2022/06/08 12:37:30;;;;;;;1.05;0.70;;;;;;;;;;5010635;28;20479;-49
2022/06/08 12:39:58;;;;;;;1.02;0.60;;;;;;;;;;5010000;28;20026;-50
2022/06/08 12:42:24;;;;;;;1.13;0.70;;;;;;;;;;5005654;28;20514;-52
2022/06/08 12:44:54;;;;;;;3.38;1.05;;;;;;;;;;5004892;28;20071;-51
2022/06/08 12:47:21;;;;;;;1.48;0.70;;;;;;;;;;5007863;28;20061;-49
2022/06/08 12:49:55;;;;;;;1.17;0.70;;;;;;;;;;5010944;28;20018;-52
2022/06/08 12:52:24;;;;;;;0.93;0.50;;;;;;;;;;5014338;28;20025;-53
2022/06/08 12:54:51;;;;;;;1.58;0.60;;;;;;;;;;5013403;28;20030;-50
2022/06/08 12:57:22;;;;;;;1.38;0.60;;;;;;;;;;5014458;28;20042;-52
2022/06/08 12:59:48;;;;;;;;;;;;;;;;;;4996511;28;20371;-49
2022/06/08 13:02:18;;;;;;;1.27;0.80;;;;;;;;;;5008154;28;19909;-50
2022/06/08 13:04:44;;;;;;;3.08;0.80;;;;;;;;;;5012019;28;20097;-50
2022/06/08 13:07:13;;;;;;;2.00;1.30;;;;;;;;;;5009955;28;20110;-50
2022/06/08 13:09:39;;;;;;;2.47;0.70;;;;;;;;;;5013147;28;20069;-52
2022/06/08 13:12:05;;;;;;;2.17;0.52;;;;;;;;;;5010552;28;20053;-50
2022/06/08 13:14:33;;;;;;;2.20;0.60;;;;;;;;;;5013915;28;20041;-50
2022/06/08 13:17:00;;;;;;;2.15;0.70;;;;;;;;;;5008109;28;20047;-50
2022/06/08 13:19:26;;;;;;;1.92;0.60;;;;;;;;;;5009981;28;20026;-52
2022/06/08 13:21:53;;;;;;;1.20;0.60;;;;;;;;;;5012141;28;20088;-51
2022/06/08 13:24:19;;;;;;;1.05;0.63;;;;;;;;;;5012803;28;20443;-52
2022/06/08 13:26:46;;;;;;;2.42;0.80;;;;;;;;;;5004521;28;20363;-53
2022/06/08 13:29:13;;;;;;;1.52;0.50;;;;;;;;;;5011085;28;20061;-53
2022/06/08 13:31:39;;;;;;;1.20;0.50;;;;;;;;;;5012753;28;20109;-50
2022/06/08 13:34:05;;;;;;;2.40;0.60;;;;;;;;;;5009066;28;20049;-52
2022/06/08 13:36:40;;;;;;;1.63;0.65;;;;;;;;;;5009562;28;20026;-53
2022/06/08 13:39:09;;;;;;;1.52;0.73;;;;;;;;;;5006948;28;20034;-51
2022/06/08 13:41:36;;;;;;;1.45;0.70;;;;;;;;;;5012961;28;20040;-54
2022/06/08 13:44:02;;;;;;;1.65;0.60;;;;;;;;;;5011803;28;20057;-50
2022/06/08 13:46:30;;;;;;;1.63;0.68;;;;;;;;;;5007701;28;20128;-49
2022/06/08 13:48:58;;;;;;;0.85;0.60;;;;;;;;;;5012326;28;20030;-50
2022/06/08 13:51:24;;;;;;;0.88;0.60;;;;;;;;;;5012843;28;20022;-52
2022/06/08 13:53:50;;;;;;;1.17;0.80;;;;;;;;;;5006658;28;20030;-51
2022/06/08 13:56:17;;;;;;;1.95;0.45;;;;;;;;;;5012130;28;20026;-52
2022/06/08 13:58:43;;;;;;;1.02;0.60;;;;;;;;;;5012198;28;20037;-52
2022/06/08 14:01:18;;;;;;;2.25;0.60;;;;;;;;;;5006908;28;20022;-50
2022/06/08 14:03:44;;;;;;;1.75;0.63;;;;;;;;;;5009035;28;20088;-53
2022/06/08 14:14:26;;;;;;;2.17;0.40;;;;;;;;;;5011989;28;20498;-49
2022/06/08 14:16:54;;;;;;;1.10;0.70;;;;;;;;;;5011935;28;20056;-50
2022/06/08 14:19:24;;;;;;;1.33;1.05;;;;;;;;;;5010847;28;20041;-49
2022/06/08 14:21:51;;;;;;;1.67;0.70;;;;;;;;;;5010356;28;20034;-52
2022/06/08 14:24:25;;;;;;;0.85;0.65;;;;;;;;;;5006243;28;20034;-50
2022/06/08 14:26:53;;;;;;;0.88;0.50;;;;;;;;;;5010987;28;20041;-53
2022/06/08 14:29:19;;;;;;;0.70;0.40;;;;;;;;;;5010650;28;20029;-51
2022/06/08 14:31:46;;;;;;;1.83;0.73;;;;;;;;;;5011641;28;20030;-53
2022/06/08 14:34:15;;;;;;;1.05;0.68;;;;;;;;;;5011613;28;20033;-50
2022/06/08 14:36:41;;;;;;;1.27;0.60;;;;;;;;;;5005259;28;20108;-54
2022/06/08 14:39:08;;;;;;;1.10;0.63;;;;;;;;;;5011997;28;20058;-52
2022/06/08 14:41:40;;;;;;;0.60;0.60;;;;;;;;;;5012219;28;20026;-53
2022/06/08 14:44:12;;;;;;;0.98;0.75;;;;;;;;;;5011415;28;20029;-48
2022/06/08 14:46:40;;;;;;;0.95;0.50;;;;;;;;;;5008502;28;20359;-53
2022/06/08 14:49:05;;;;;;;0.70;0.60;;;;;;;;;;5012030;28;20053;-50
2022/06/08 14:51:31;;;;;;;2.05;0.70;;;;;;;;;;5011187;28;20463;-50
2022/06/08 14:53:57;;;;;;;0.68;0.40;;;;;;;;;;5011519;28;20026;-51
2022/06/08 14:56:24;;;;;;;0.85;0.57;;;;;;;;;;5012144;28;20545;-50
2022/06/08 14:58:53;;;;;;;1.40;0.60;;;;;;;;;;5010744;28;20384;-53
2022/06/08 15:01:20;;;;;;;2.60;0.65;;;;;;;;;;5012388;28;20376;-50
2022/06/08 15:03:47;;;;;;;0.73;0.65;;;;;;;;;;5009976;28;20037;-50
2022/06/08 15:06:13;;;;;;;2.80;0.70;;;;;;;;;;5015584;28;20060;-50
2022/06/08 15:08:39;;;;;;;0.75;0.50;;;;;;;;;;5010327;28;20025;-52
2022/06/08 15:13:54;;;;;;;1.80;0.60;;;;;;;;;;5003554;28;20033;-54
2022/06/08 15:16:20;;;;;;;2.00;0.90;;;;;;;;;;5012146;28;20548;-54
2022/06/08 15:18:46;;;;;;;4.15;0.70;;;;;;;;;;5010580;28;20057;-54
2022/06/08 15:21:12;;;;;;;3.78;0.68;;;;;;;;;;5012321;28;20371;-52